Oparino, Russia
Current Conditions -  °F | °C
As of 5:30 AM on Saturday 25 Oct 2014 (Local Time) from UUYY Reporting Station
Snow Showers Snow Showers  
Wind Chill: 13°   Ceiling: 2600
Heat Index: 21°   Visibility: 4mi
Dew Point: 16°   Wind: 7mph
Humidity: 80%   Direction: 340°NNW
Pressure: 30.33"   Gusts: 16mph
Location:  59.85°N, 48.28°E
Report Text: UUYY 250130Z 34003G07MPS 6000 -SHSN BKN026CB OVC066 M06/M09 Q1027 TEMPO 2000 SHSN 0182//49 RMK QFE761/1015
Loading
Personal Weather Stations






























Interactive Weather Map
Tropical Storm Tracking
New forecast layout! Learn more

10-Day Weather Forecast

Advertisements
Track Severe Weather on mobile